createdAt,value
2023-03-20T00:00:21.681Z,2.78
2023-03-20T00:03:28.359Z,2.73
2023-03-20T00:06:40.259Z,2.73
2023-03-20T00:09:47.326Z,2.75
2023-03-20T00:12:54.073Z,2.78
2023-03-20T00:16:00.662Z,2.79
2023-03-20T00:19:06.633Z,2.80
2023-03-20T00:22:13.794Z,2.80
2023-03-20T00:25:24.887Z,2.77
2023-03-20T00:29:00.122Z,2.74
2023-03-20T00:32:08.255Z,2.70
2023-03-20T00:35:14.173Z,2.67
2023-03-20T00:38:20.344Z,2.65
2023-03-20T00:41:44.792Z,2.60
2023-03-20T00:44:53.377Z,2.56
2023-03-20T00:48:00.614Z,2.54
2023-03-20T00:51:05.444Z,2.56
2023-03-20T00:54:12.743Z,2.60
2023-03-20T00:57:29.276Z,2.65
2023-03-20T01:00:55.219Z,2.72
2023-03-20T01:04:02.087Z,2.79
2023-03-20T01:07:08.114Z,2.82
2023-03-20T01:10:15.180Z,2.89
2023-03-20T01:13:39.888Z,2.99
2023-03-20T01:16:46.439Z,3.04
2023-03-20T01:19:52.222Z,3.11
2023-03-20T01:22:59.254Z,3.16
2023-03-20T01:26:05.405Z,3.21
2023-03-20T01:29:11.530Z,3.27
2023-03-20T01:32:17.488Z,3.27
2023-03-20T01:35:30.623Z,3.26
2023-03-20T01:38:42.999Z,3.30
2023-03-20T01:41:48.762Z,3.34
2023-03-20T01:44:54.641Z,3.40
2023-03-20T01:48:00.794Z,3.44
2023-03-20T01:51:06.628Z,3.40
2023-03-20T01:54:16.573Z,3.44
2023-03-20T01:57:31.789Z,3.49
2023-03-20T02:00:38.924Z,3.48
2023-03-20T02:03:45.333Z,3.50
2023-03-20T02:06:55.673Z,3.47
2023-03-20T02:10:21.847Z,3.49
2023-03-20T02:13:29.278Z,3.52
2023-03-20T02:16:21.428Z,3.55
2023-03-20T02:19:38.822Z,3.58
2023-03-20T02:23:09.721Z,3.62
2023-03-20T02:26:49.383Z,3.65
2023-03-20T02:30:11.848Z,3.66
2023-03-20T02:33:40.071Z,3.66
2023-03-20T02:37:12.629Z,3.68
2023-03-20T02:40:32.054Z,3.73
2023-03-20T02:43:48.924Z,3.76
2023-03-20T02:47:38.512Z,3.80
2023-03-20T02:50:56.001Z,3.80
2023-03-20T02:54:11.571Z,3.78
2023-03-20T02:57:24.666Z,3.75
2023-03-20T03:00:50.533Z,3.68
2023-03-20T03:04:05.808Z,3.61
2023-03-20T03:07:13.191Z,3.59
2023-03-20T03:10:36.611Z,3.61
2023-03-20T03:13:44.889Z,3.59
2023-03-20T03:16:52.223Z,3.58
2023-03-20T03:20:05.380Z,3.58
2023-03-20T03:23:11.979Z,3.60
2023-03-20T03:26:18.176Z,3.64
2023-03-20T03:29:32.091Z,3.67
2023-03-20T03:32:47.752Z,3.72
2023-03-20T03:35:55.151Z,3.70
2023-03-20T03:39:11.700Z,3.79
2023-03-20T03:42:51.084Z,3.85
2023-03-20T03:46:02.491Z,3.88
2023-03-20T03:49:11.547Z,3.94
2023-03-20T03:52:26.019Z,3.99
2023-03-20T03:55:42.961Z,4.03
2023-03-20T03:58:58.195Z,4.01
2023-03-20T04:02:05.638Z,4.01
2023-03-20T04:05:10.805Z,4.08
2023-03-20T04:08:17.310Z,4.16
2023-03-20T04:11:32.704Z,4.16
2023-03-20T04:14:38.662Z,4.14
2023-03-20T04:17:44.760Z,4.14
2023-03-20T04:20:50.633Z,4.23
2023-03-20T04:23:56.793Z,4.30
2023-03-20T04:27:01.781Z,4.36
2023-03-20T04:30:09.045Z,4.27
2023-03-20T04:33:35.180Z,4.31
2023-03-20T04:36:52.517Z,4.30
2023-03-20T04:40:02.474Z,4.26
2023-03-20T04:43:07.238Z,4.25
2023-03-20T04:46:14.664Z,4.24
2023-03-20T04:49:21.618Z,4.26
2023-03-20T04:52:29.369Z,4.29
2023-03-20T04:55:35.961Z,4.24
2023-03-20T04:58:43.283Z,4.30
2023-03-20T05:01:50.992Z,4.29
2023-03-20T05:04:58.286Z,4.35
2023-03-20T05:08:08.029Z,4.40
2023-03-20T05:11:16.474Z,4.45
2023-03-20T05:14:24.979Z,4.42
2023-03-20T05:17:42.705Z,4.40
2023-03-20T05:20:53.280Z,4.45
2023-03-20T05:24:04.041Z,4.53
2023-03-20T05:27:15.104Z,4.59
2023-03-20T05:30:56.304Z,4.63
2023-03-20T05:34:05.091Z,4.58
2023-03-20T05:37:14.226Z,4.60
2023-03-20T05:40:41.210Z,4.60
2023-03-20T05:43:49.579Z,4.68
2023-03-20T05:47:13.863Z,4.66
2023-03-20T05:50:22.845Z,4.73
2023-03-20T05:53:44.957Z,4.77
2023-03-20T05:57:01.243Z,4.78
2023-03-20T06:00:12.363Z,4.78
2023-03-20T06:03:17.389Z,4.84
2023-03-20T06:06:33.237Z,4.95
2023-03-20T06:09:38.548Z,5.05
2023-03-20T06:12:44.254Z,5.20
2023-03-20T06:15:53.726Z,5.33
2023-03-20T06:19:13.218Z,5.43
2023-03-20T06:22:19.683Z,5.48
2023-03-20T06:25:25.683Z,5.56
2023-03-20T06:28:32.245Z,5.54
2023-03-20T06:31:41.441Z,5.44
2023-03-20T06:34:49.107Z,5.36
2023-03-20T06:37:56.077Z,5.41
2023-03-20T06:41:02.725Z,5.41
2023-03-20T06:44:10.141Z,5.39
2023-03-20T06:47:21.894Z,5.49
2023-03-20T06:50:28.622Z,5.60
2023-03-20T06:53:36.240Z,5.68
2023-03-20T06:56:46.190Z,5.62
2023-03-20T06:59:53.347Z,5.62
2023-03-20T07:03:02.269Z,5.54
2023-03-20T07:06:14.270Z,5.63
2023-03-20T07:09:20.873Z,5.67
2023-03-20T07:12:32.951Z,5.71
2023-03-20T07:16:04.085Z,5.84
2023-03-20T07:19:03.552Z,5.79
2023-03-20T07:22:15.091Z,5.83
2023-03-20T07:25:39.465Z,5.94
2023-03-20T07:28:33.539Z,6.05
2023-03-20T07:31:44.018Z,6.02
2023-03-20T07:34:51.832Z,5.96
2023-03-20T07:38:00.039Z,5.84
2023-03-20T07:41:10.388Z,5.85
2023-03-20T07:44:18.576Z,5.75
2023-03-20T07:47:24.505Z,5.71
2023-03-20T07:50:29.648Z,5.78
2023-03-20T07:53:35.098Z,5.87
2023-03-20T07:56:44.866Z,6.02
2023-03-20T07:59:49.873Z,6.11
2023-03-20T08:03:00.159Z,6.20
2023-03-20T08:06:06.909Z,6.33
2023-03-20T08:09:21.561Z,6.36
2023-03-20T08:12:28.009Z,6.19
2023-03-20T08:15:36.168Z,6.22
2023-03-20T08:18:43.537Z,6.31
2023-03-20T08:21:50.263Z,6.34
2023-03-20T08:24:57.209Z,6.46
2023-03-20T08:28:03.804Z,6.47
2023-03-20T08:31:10.541Z,6.41
2023-03-20T08:34:18.466Z,6.44
2023-03-20T08:37:25.703Z,6.55
2023-03-20T08:40:35.062Z,6.64
2023-03-20T08:43:46.552Z,6.65
2023-03-20T08:46:54.463Z,6.70
2023-03-20T08:49:59.996Z,6.71
2023-03-20T08:53:05.595Z,6.73
2023-03-20T08:56:10.841Z,6.68
2023-03-20T08:59:17.840Z,6.75
2023-03-20T09:02:27.543Z,6.87
2023-03-20T09:05:39.782Z,6.87
2023-03-20T09:08:45.304Z,7.03
2023-03-20T09:11:52.583Z,7.08
2023-03-20T09:15:01.078Z,7.04
2023-03-20T09:18:07.342Z,6.99
2023-03-20T09:21:12.279Z,7.10
2023-03-20T09:24:19.220Z,7.22
2023-03-20T09:27:25.146Z,7.26
2023-03-20T09:30:29.766Z,7.27
2023-03-20T09:33:35.982Z,7.38
2023-03-20T09:36:42.750Z,7.48
2023-03-20T09:39:48.518Z,7.56
2023-03-20T09:43:09.827Z,7.67
2023-03-20T09:46:34.874Z,7.66
2023-03-20T09:50:05.645Z,7.66
2023-03-20T09:53:34.582Z,7.56
2023-03-20T09:56:42.851Z,7.59
2023-03-20T09:59:49.762Z,7.54
2023-03-20T10:03:15.163Z,7.39
2023-03-20T10:06:28.876Z,7.46
2023-03-20T10:09:45.029Z,7.58
2023-03-20T10:13:06.677Z,7.68
2023-03-20T10:16:24.008Z,7.81
2023-03-20T10:19:52.362Z,7.84
2023-03-20T10:23:03.995Z,7.85
2023-03-20T10:26:13.349Z,7.85
2023-03-20T10:29:26.799Z,7.90
2023-03-20T10:32:44.889Z,8.03
2023-03-20T10:36:10.080Z,8.07
2023-03-20T10:39:22.428Z,8.16
2023-03-20T10:42:33.098Z,8.18
2023-03-20T10:45:46.070Z,8.29
2023-03-20T10:49:03.483Z,8.36
2023-03-20T10:52:05.775Z,8.43
2023-03-20T10:55:25.509Z,8.46
2023-03-20T10:58:38.224Z,8.53
2023-03-20T11:01:45.328Z,8.48
2023-03-20T11:04:53.666Z,8.42
2023-03-20T11:08:04.399Z,8.52
2023-03-20T11:11:22.008Z,8.70
2023-03-20T11:14:35.788Z,8.77
2023-03-20T11:17:47.471Z,8.89
2023-03-20T11:21:11.351Z,8.99
2023-03-20T11:24:19.716Z,9.16
2023-03-20T11:27:38.497Z,9.46
2023-03-20T11:31:03.509Z,9.52
2023-03-20T11:34:08.615Z,9.64
2023-03-20T11:37:17.513Z,9.99
2023-03-20T11:40:36.672Z,10.22
2023-03-20T11:43:43.274Z,10.17
2023-03-20T11:46:51.591Z,9.89
2023-03-20T11:50:06.038Z,9.86
2023-03-20T11:53:10.629Z,9.96
2023-03-20T11:56:25.145Z,10.21
2023-03-20T11:59:32.088Z,10.58
2023-03-20T12:02:38.212Z,10.85
2023-03-20T12:05:51.610Z,10.93
2023-03-20T12:08:59.143Z,11.02
2023-03-20T12:12:22.162Z,11.03
2023-03-20T12:15:51.552Z,11.14
2023-03-20T12:19:18.441Z,11.12
2023-03-20T12:22:45.568Z,11.14
2023-03-20T12:26:14.456Z,11.39
2023-03-20T12:29:39.307Z,11.61
2023-03-20T12:33:02.762Z,11.66
2023-03-20T12:36:11.718Z,11.54
2023-03-20T12:39:21.086Z,11.55
2023-03-20T12:42:43.727Z,11.43
2023-03-20T12:46:18.003Z,11.22
2023-03-20T12:49:34.165Z,10.93
2023-03-20T12:53:18.224Z,10.66
2023-03-20T12:56:49.315Z,10.56
2023-03-20T13:00:06.624Z,10.44
2023-03-20T13:03:27.803Z,10.25
2023-03-20T13:06:46.931Z,10.28
2023-03-20T13:10:37.954Z,10.21
2023-03-20T13:14:13.475Z,10.20
2023-03-20T13:17:43.758Z,10.34
2023-03-20T13:20:58.330Z,10.39
2023-03-20T13:24:35.235Z,10.30
2023-03-20T13:28:03.940Z,10.16
2023-03-20T13:31:38.157Z,10.24
2023-03-20T13:34:54.675Z,10.34
2023-03-20T13:38:11.354Z,10.47
2023-03-20T13:41:21.529Z,10.71
2023-03-20T13:44:29.226Z,10.85
2023-03-20T13:47:40.430Z,10.91
2023-03-20T13:50:56.862Z,11.09
2023-03-20T13:54:32.183Z,11.08
2023-03-20T13:58:00.548Z,11.20
2023-03-20T14:01:34.415Z,11.32
2023-03-20T14:04:40.298Z,11.39
2023-03-20T14:07:51.139Z,11.50
2023-03-20T14:10:57.627Z,11.67
2023-03-20T14:14:13.725Z,11.66
2023-03-20T14:17:35.026Z,11.74
2023-03-20T14:20:50.814Z,11.90
2023-03-20T14:23:58.668Z,12.01
2023-03-20T14:27:09.201Z,12.02
2023-03-20T14:30:17.011Z,11.95
2023-03-20T14:33:33.657Z,11.89
2023-03-20T14:36:46.048Z,11.73
2023-03-20T14:40:04.987Z,11.64
2023-03-20T14:43:15.477Z,11.67
2023-03-20T14:46:47.373Z,11.61
2023-03-20T14:50:37.554Z,11.33
2023-03-20T14:53:44.864Z,11.07
2023-03-20T14:56:54.812Z,10.95
2023-03-20T15:00:01.758Z,11.02
2023-03-20T15:03:19.265Z,11.23
2023-03-20T15:06:26.912Z,11.42
2023-03-20T15:09:34.601Z,11.27
2023-03-20T15:12:42.611Z,10.95
2023-03-20T15:15:49.749Z,10.64
2023-03-20T15:19:03.861Z,10.51
2023-03-20T15:22:11.010Z,10.62
2023-03-20T15:25:18.023Z,10.40
2023-03-20T15:28:42.209Z,10.15
2023-03-20T15:31:59.842Z,10.03
2023-03-20T15:35:02.466Z,9.92
2023-03-20T15:38:11.996Z,9.71
2023-03-20T15:41:30.559Z,9.48
2023-03-20T15:44:39.465Z,9.29
2023-03-20T15:47:47.364Z,9.07
2023-03-20T15:50:56.009Z,8.89
2023-03-20T15:54:03.539Z,8.67
2023-03-20T15:57:13.391Z,8.43
2023-03-20T16:00:22.764Z,8.23
2023-03-20T16:03:34.685Z,8.05
2023-03-20T16:06:40.203Z,7.87
2023-03-20T16:09:46.317Z,7.61
2023-03-20T16:12:54.512Z,7.41
2023-03-20T16:16:02.909Z,7.23
2023-03-20T16:19:11.161Z,7.07
2023-03-20T16:22:34.348Z,6.92
2023-03-20T16:25:41.121Z,6.79
2023-03-20T16:28:47.062Z,6.64
2023-03-20T16:31:55.856Z,6.51
2023-03-20T16:35:06.623Z,6.38
2023-03-20T16:38:14.227Z,6.28
2023-03-20T16:41:45.766Z,6.19
2023-03-20T16:44:51.455Z,6.09
2023-03-20T16:47:58.172Z,6.01
2023-03-20T16:51:04.793Z,5.92
2023-03-20T16:54:12.960Z,5.85
2023-03-20T16:57:24.081Z,5.79
2023-03-20T17:00:40.437Z,5.74
2023-03-20T17:04:03.934Z,5.68
2023-03-20T17:07:12.625Z,5.59
2023-03-20T17:10:36.690Z,5.52
2023-03-20T17:13:43.176Z,5.41
2023-03-20T17:16:50.588Z,5.31
2023-03-20T17:19:49.548Z,5.20
2023-03-20T17:22:43.172Z,5.11
2023-03-20T17:25:48.223Z,5.07
2023-03-20T17:28:54.403Z,5.02
2023-03-20T17:32:01.057Z,4.92
2023-03-20T17:35:07.164Z,4.89
2023-03-20T17:38:14.015Z,4.82
2023-03-20T17:41:23.434Z,4.75
2023-03-20T17:44:29.349Z,4.69
2023-03-20T17:47:41.679Z,4.67
2023-03-20T17:50:47.238Z,4.65
2023-03-20T17:53:53.672Z,4.60
2023-03-20T17:57:02.023Z,4.55
2023-03-20T18:00:07.694Z,4.53
2023-03-20T18:03:14.319Z,4.39
2023-03-20T18:06:22.175Z,4.22
2023-03-20T18:09:28.836Z,4.19
2023-03-20T18:12:35.632Z,4.17
2023-03-20T18:15:42.129Z,4.13
2023-03-20T18:18:49.274Z,4.10
2023-03-20T18:21:54.112Z,4.09
2023-03-20T18:25:00.634Z,4.05
2023-03-20T18:28:12.501Z,4.01
2023-03-20T18:31:20.891Z,3.97
2023-03-20T18:34:29.319Z,3.91
2023-03-20T18:37:36.320Z,3.79
2023-03-20T18:40:51.405Z,3.66
2023-03-20T18:43:58.419Z,3.57
2023-03-20T18:47:05.052Z,3.53
2023-03-20T18:50:10.897Z,3.54
2023-03-20T18:53:18.919Z,3.55
2023-03-20T18:56:33.489Z,3.55
2023-03-20T18:59:38.698Z,3.54
2023-03-20T19:02:45.316Z,3.55
2023-03-20T19:05:52.502Z,3.53
2023-03-20T19:09:00.954Z,3.50
2023-03-20T19:12:06.087Z,3.40
2023-03-20T19:15:12.037Z,3.30
2023-03-20T19:18:29.376Z,3.24
2023-03-20T19:21:35.642Z,3.18
2023-03-20T19:24:43.263Z,3.12
2023-03-20T19:27:50.754Z,3.10
2023-03-20T19:30:57.570Z,3.08
2023-03-20T19:34:05.450Z,3.07
2023-03-20T19:37:12.334Z,3.07
2023-03-20T19:40:18.418Z,3.11
2023-03-20T19:43:24.255Z,3.14
2023-03-20T19:46:41.219Z,3.16
2023-03-20T19:49:40.523Z,3.14
2023-03-20T19:52:46.730Z,3.13
2023-03-20T19:55:54.122Z,3.15
2023-03-20T19:59:00.070Z,3.12
2023-03-20T20:02:07.804Z,3.11
2023-03-20T20:05:14.723Z,3.11
2023-03-20T20:08:38.973Z,3.13
2023-03-20T20:11:33.273Z,3.14
2023-03-20T20:14:39.723Z,3.14
2023-03-20T20:17:44.765Z,3.14
2023-03-20T20:21:42.682Z,3.14
2023-03-20T20:24:00.206Z,3.17
2023-03-20T20:27:17.945Z,3.17
2023-03-20T20:30:16.397Z,3.17
2023-03-20T20:33:28.704Z,3.17
2023-03-20T20:37:26.030Z,3.18
2023-03-20T20:39:41.714Z,3.20
2023-03-20T20:42:51.136Z,3.22
2023-03-20T20:45:56.909Z,3.18
2023-03-20T20:49:18.161Z,3.14
2023-03-20T20:52:11.079Z,3.13
2023-03-20T20:55:25.305Z,3.15
2023-03-20T20:58:26.265Z,3.15
2023-03-20T21:01:34.536Z,3.17
2023-03-20T21:04:41.533Z,3.15
2023-03-20T21:07:48.164Z,3.09
2023-03-20T21:10:54.027Z,3.05
2023-03-20T21:14:00.494Z,3.00
2023-03-20T21:17:08.390Z,2.92
2023-03-20T21:20:15.580Z,2.88
2023-03-20T21:23:22.205Z,2.80
2023-03-20T21:26:28.960Z,2.73
2023-03-20T21:29:34.846Z,2.72
2023-03-20T21:32:42.419Z,2.67
2023-03-20T21:35:49.712Z,2.67
2023-03-20T21:39:11.817Z,2.66
2023-03-20T21:42:05.689Z,2.61
2023-03-20T21:46:10.834Z,2.56
2023-03-20T21:48:58.340Z,2.53
2023-03-20T21:52:28.893Z,2.49
2023-03-20T21:58:38.416Z,2.44
2023-03-20T22:05:02.012Z,2.45
2023-03-20T22:14:33.050Z,2.42
2023-03-20T22:20:36.328Z,2.45
2023-03-20T22:23:47.962Z,2.45
2023-03-20T22:27:13.008Z,2.43
2023-03-20T22:30:08.534Z,2.44
2023-03-20T22:36:33.257Z,2.45
2023-03-20T22:45:11.229Z,2.47
2023-03-20T22:48:17.689Z,2.46
2023-03-20T22:51:32.634Z,2.44
2023-03-20T22:54:32.117Z,2.44
2023-03-20T22:57:45.606Z,2.43
2023-03-20T23:00:45.831Z,2.43
2023-03-20T23:03:51.627Z,2.47
2023-03-20T23:06:59.530Z,2.50
2023-03-20T23:10:05.810Z,2.48
2023-03-20T23:13:11.709Z,2.49
2023-03-20T23:16:18.583Z,2.54
2023-03-20T23:19:26.514Z,2.61
2023-03-20T23:22:33.234Z,2.66
2023-03-20T23:25:40.636Z,2.68
2023-03-20T23:28:48.787Z,2.69
2023-03-20T23:31:55.173Z,2.71
2023-03-20T23:35:01.880Z,2.77
2023-03-20T23:38:08.207Z,2.86
2023-03-20T23:41:14.327Z,2.94
2023-03-20T23:44:20.742Z,2.93
2023-03-20T23:47:30.003Z,2.95
2023-03-20T23:50:46.084Z,3.03
2023-03-20T23:53:44.658Z,3.07
2023-03-20T23:56:49.633Z,3.14
2023-03-20T23:59:55.563Z,3.21
